Time,TemperatureF,DewpointF,PressureIn,WindDirection,WindDirectionDegrees,WindSpeedMPH,WindSpeedGustMPH,Humidity,HourlyPrecipIn,Conditions,Clouds,dailyrainin,SolarRadiationWatts/m^2,SoftwareType,DateUTC
2013-03-22 00:06:00,50.2,43.0,30.05,NNW,335,2.0,4.0,75,0.00,,,0.00,0,weatherlink.com 1.10,2013-03-22 07:06:00,
2013-03-22 00:36:00,49.3,42.0,30.05,NNW,344,2.0,3.0,77,0.00,,,0.00,0,weatherlink.com 1.10,2013-03-22 07:36:00,
2013-03-22 01:06:00,49.2,42.0,30.05,NE,44,3.0,8.0,75,0.00,,,0.00,0,weatherlink.com 1.10,2013-03-22 08:06:00,
2013-03-22 01:36:00,49.2,42.0,30.05,NE,45,7.0,7.0,75,0.00,,,0.00,0,weatherlink.com 1.10,2013-03-22 08:36:00,
2013-03-22 01:51:00,49.1,42.0,30.06,NE,44,3.0,8.0,76,0.00,,,0.00,0,weatherlink.com 1.10,2013-03-22 08:51:00,
2013-03-22 02:06:00,48.5,42.0,30.05,NE,46,4.0,5.0,79,0.00,,,0.00,0,weatherlink.com 1.10,2013-03-22 09:06:00,
2013-03-22 02:21:00,47.9,42.0,30.06,NNE,31,3.0,5.0,80,0.00,,,0.00,0,weatherlink.com 1.10,2013-03-22 09:21:00,
2013-03-22 02:36:00,47.5,42.0,30.05,NNE,23,3.0,4.0,82,0.00,,,0.00,0,weatherlink.com 1.10,2013-03-22 09:36:00,
2013-03-22 02:51:00,47.2,42.0,30.05,NE,49,2.0,5.0,82,0.00,,,0.00,0,weatherlink.com 1.10,2013-03-22 09:51:00,
2013-03-22 03:06:00,47.0,42.0,30.06,NNE,23,2.0,5.0,82,0.00,,,0.00,0,weatherlink.com 1.10,2013-03-22 10:06:00,
2013-03-22 03:21:00,47.2,41.0,30.05,NE,44,4.0,7.0,80,0.00,,,0.00,0,weatherlink.com 1.10,2013-03-22 10:21:00,
2013-03-22 03:36:00,46.8,41.0,30.05,NE,35,3.0,5.0,80,0.00,,,0.00,0,weatherlink.com 1.10,2013-03-22 10:36:00,
2013-03-22 03:51:00,46.5,41.0,30.06,NNE,27,2.0,5.0,81,0.00,,,0.00,0,weatherlink.com 1.10,2013-03-22 10:51:00,
2013-03-22 04:06:00,46.3,41.0,30.06,NNE,24,2.0,6.0,81,0.00,,,0.00,0,weatherlink.com 1.10,2013-03-22 11:06:00,
2013-03-22 04:22:00,46.1,41.0,30.06,ENE,58,0.0,5.0,81,0.00,,,0.00,0,weatherlink.com 1.10,2013-03-22 11:22:00,
2013-03-22 04:37:00,45.8,41.0,30.05,NW,317,1.0,6.0,82,0.00,,,0.00,0,weatherlink.com 1.10,2013-03-22 11:37:00,
2013-03-22 04:52:00,45.8,40.0,30.05,NNE,15,2.0,5.0,81,0.00,,,0.00,0,weatherlink.com 1.10,2013-03-22 11:52:00,
2013-03-22 05:07:00,45.7,41.0,30.05,NE,49,2.0,4.0,83,0.00,,,0.00,0,weatherlink.com 1.10,2013-03-22 12:07:00,
2013-03-22 05:22:00,45.8,41.0,30.05,NE,43,4.0,8.0,83,0.00,,,0.00,0,weatherlink.com 1.10,2013-03-22 12:22:00,
2013-03-22 05:37:00,45.6,41.0,30.05,NNW,348,3.0,7.0,84,0.00,,,0.00,0,weatherlink.com 1.10,2013-03-22 12:37:00,
2013-03-22 05:52:00,45.2,40.0,30.05,NNW,330,2.0,8.0,83,0.00,,,0.00,0,weatherlink.com 1.10,2013-03-22 12:52:00,
2013-03-22 06:07:00,45.0,41.0,30.06,NW,309,1.0,6.0,84,0.00,,,0.00,0,weatherlink.com 1.10,2013-03-22 13:07:00,
2013-03-22 06:22:00,44.4,40.0,30.06,NW,307,2.0,5.0,85,0.00,,,0.00,0,weatherlink.com 1.10,2013-03-22 13:22:00,
2013-03-22 06:37:00,44.2,40.0,30.06,North,360,1.0,5.0,85,0.00,,,0.00,0,weatherlink.com 1.10,2013-03-22 13:37:00,
2013-03-22 06:52:00,44.0,40.0,30.07,NNE,30,3.0,5.0,85,0.00,,,0.00,0,weatherlink.com 1.10,2013-03-22 13:52:00,
2013-03-22 07:07:00,44.0,40.0,30.07,NNW,342,0.0,5.0,85,0.00,,,0.00,0,weatherlink.com 1.10,2013-03-22 14:07:00,
2013-03-22 07:22:00,44.1,40.0,30.08,ENE,57,3.0,5.0,85,0.00,,,0.00,0,weatherlink.com 1.10,2013-03-22 14:22:00,
2013-03-22 07:37:00,44.3,40.0,30.08,NE,39,2.0,5.0,85,0.00,,,0.00,0,weatherlink.com 1.10,2013-03-22 14:37:00,
2013-03-22 07:52:00,44.8,40.0,30.09,NE,51,1.0,8.0,82,0.00,,,0.00,0,weatherlink.com 1.10,2013-03-22 14:52:00,
2013-03-22 08:07:00,45.3,40.0,30.09,NNE,14,2.0,5.0,80,0.00,,,0.00,0,weatherlink.com 1.10,2013-03-22 15:07:00,
2013-03-22 08:22:00,46.4,40.0,30.09,NW,309,2.0,7.0,78,0.00,,,0.00,0,weatherlink.com 1.10,2013-03-22 15:22:00,
2013-03-22 08:37:00,47.1,40.0,30.09,WNW,300,3.0,5.0,77,0.00,,,0.00,0,weatherlink.com 1.10,2013-03-22 15:37:00,
2013-03-22 08:52:00,48.2,40.0,30.10,NNE,26,2.0,6.0,74,0.00,,,0.00,0,weatherlink.com 1.10,2013-03-22 15:52:00,
2013-03-22 09:07:00,49.3,40.0,30.10,NE,35,1.0,5.0,71,0.00,,,0.00,0,weatherlink.com 1.10,2013-03-22 16:07:00,
2013-03-22 09:22:00,50.3,40.0,30.10,NE,35,2.0,6.0,68,0.00,,,0.00,0,weatherlink.com 1.10,2013-03-22 16:22:00,
2013-03-22 09:37:00,51.3,40.0,30.11,NNW,348,1.0,6.0,65,0.00,,,0.00,0,weatherlink.com 1.10,2013-03-22 16:37:00,
2013-03-22 09:52:00,52.5,40.0,30.11,NNE,27,2.0,8.0,62,0.00,,,0.00,0,weatherlink.com 1.10,2013-03-22 16:52:00,
2013-03-22 10:07:00,53.8,39.0,30.11,NNW,330,1.0,6.0,57,0.00,,,0.00,0,weatherlink.com 1.10,2013-03-22 17:07:00,
2013-03-22 10:22:00,55.1,37.0,30.11,NW,313,2.0,7.0,50,0.00,,,0.00,0,weatherlink.com 1.10,2013-03-22 17:22:00,
2013-03-22 10:37:00,56.1,36.0,30.12,ENE,59,5.0,9.0,47,0.00,,,0.00,0,weatherlink.com 1.10,2013-03-22 17:37:00,
2013-03-22 10:52:00,57.0,35.0,30.12,NNE,20,3.0,8.0,44,0.00,,,0.00,0,weatherlink.com 1.10,2013-03-22 17:52:00,
2013-03-22 11:07:00,57.7,33.0,30.12,NNW,340,2.0,9.0,40,0.00,,,0.00,0,weatherlink.com 1.10,2013-03-22 18:07:00,
2013-03-22 11:23:00,59.2,34.0,30.12,NNE,30,2.0,6.0,39,0.00,,,0.00,0,weatherlink.com 1.10,2013-03-22 18:23:00,
2013-03-22 11:38:00,60.0,32.0,30.11,NNE,26,1.0,6.0,35,0.00,,,0.00,0,weatherlink.com 1.10,2013-03-22 18:38:00,
2013-03-22 11:53:00,61.1,33.0,30.12,West,264,3.0,8.0,35,0.00,,,0.00,0,weatherlink.com 1.10,2013-03-22 18:53:00,
2013-03-22 12:08:00,62.2,33.0,30.11,NE,50,3.0,8.0,33,0.00,,,0.00,0,weatherlink.com 1.10,2013-03-22 19:08:00,
2013-03-22 12:23:00,63.2,30.0,30.11,NNW,338,1.0,7.0,29,0.00,,,0.00,0,weatherlink.com 1.10,2013-03-22 19:23:00,
2013-03-22 12:38:00,64.0,36.0,30.10,SW,228,0.0,7.0,36,0.00,,,0.00,0,weatherlink.com 1.10,2013-03-22 19:38:00,
2013-03-22 12:53:00,64.1,34.0,30.10,West,261,1.0,5.0,33,0.00,,,0.00,0,weatherlink.com 1.10,2013-03-22 19:53:00,
2013-03-22 13:08:00,64.6,33.0,30.10,NE,53,0.0,7.0,31,0.00,,,0.00,0,weatherlink.com 1.10,2013-03-22 20:08:00,
2013-03-22 13:23:00,64.7,31.0,30.10,NW,321,5.0,7.0,28,0.00,,,0.00,0,weatherlink.com 1.10,2013-03-22 20:23:00,
2013-03-22 13:38:00,64.7,32.0,30.09,NE,44,1.0,7.0,29,0.00,,,0.00,0,weatherlink.com 1.10,2013-03-22 20:38:00,
2013-03-22 13:53:00,65.2,30.0,30.09,WSW,256,1.0,6.0,27,0.00,,,0.00,0,weatherlink.com 1.10,2013-03-22 20:53:00,
2013-03-22 14:08:00,65.8,30.0,30.08,NNW,333,4.0,8.0,26,0.00,,,0.00,0,weatherlink.com 1.10,2013-03-22 21:08:00,
2013-03-22 14:23:00,66.4,30.0,30.07,NW,321,4.0,7.0,26,0.00,,,0.00,0,weatherlink.com 1.10,2013-03-22 21:23:00,
2013-03-22 14:38:00,66.7,31.0,30.07,NE,36,0.0,7.0,26,0.00,,,0.00,0,weatherlink.com 1.10,2013-03-22 21:38:00,
2013-03-22 14:53:00,67.3,31.0,30.06,NNE,32,7.0,7.0,26,0.00,,,0.00,0,weatherlink.com 1.10,2013-03-22 21:53:00,
2013-03-22 15:08:00,67.8,32.0,30.05,NW,310,0.0,6.0,26,0.00,,,0.00,0,weatherlink.com 1.10,2013-03-22 22:08:00,
2013-03-22 15:23:00,68.1,33.0,30.05,NNE,30,1.0,5.0,27,0.00,,,0.00,0,weatherlink.com 1.10,2013-03-22 22:23:00,
2013-03-22 15:38:00,68.8,32.0,30.05,NW,318,4.0,8.0,26,0.00,,,0.00,0,weatherlink.com 1.10,2013-03-22 22:38:00,
2013-03-22 15:53:00,69.1,33.0,30.04,WNW,302,1.0,6.0,26,0.00,,,0.00,0,weatherlink.com 1.10,2013-03-22 22:53:00,
2013-03-22 16:08:00,68.7,31.0,30.04,NW,323,2.0,11.0,25,0.00,,,0.00,0,weatherlink.com 1.10,2013-03-22 23:08:00,
2013-03-22 16:23:00,68.7,32.0,30.04,NW,325,1.0,6.0,26,0.00,,,0.00,0,weatherlink.com 1.10,2013-03-22 23:23:00,
2013-03-22 16:38:00,68.5,35.0,30.03,NNW,333,1.0,6.0,29,0.00,,,0.00,0,weatherlink.com 1.10,2013-03-22 23:38:00,
2013-03-22 16:53:00,68.8,35.0,30.03,NW,305,4.0,7.0,29,0.00,,,0.00,0,weatherlink.com 1.10,2013-03-22 23:53:00,
2013-03-22 17:08:00,68.3,36.0,30.03,NNW,340,2.0,8.0,31,0.00,,,0.00,0,weatherlink.com 1.10,2013-03-23 00:08:00,
2013-03-22 17:23:00,67.5,38.0,30.03,WNW,298,2.0,8.0,34,0.00,,,0.00,0,weatherlink.com 1.10,2013-03-23 00:23:00,
2013-03-22 17:38:00,67.6,38.0,30.03,NNW,348,4.0,6.0,34,0.00,,,0.00,0,weatherlink.com 1.10,2013-03-23 00:38:00,
2013-03-22 17:53:00,66.7,35.0,30.03,NW,316,4.0,8.0,31,0.00,,,0.00,0,weatherlink.com 1.10,2013-03-23 00:53:00,
2013-03-22 18:08:00,66.6,36.0,30.03,NW,306,2.0,5.0,32,0.00,,,0.00,0,weatherlink.com 1.10,2013-03-23 01:08:00,
2013-03-22 18:23:00,65.5,34.0,30.03,NW,304,2.0,9.0,31,0.00,,,0.00,0,weatherlink.com 1.10,2013-03-23 01:23:00,
2013-03-22 18:38:00,64.8,35.0,30.03,NW,310,5.0,7.0,33,0.00,,,0.00,0,weatherlink.com 1.10,2013-03-23 01:38:00,
2013-03-22 18:53:00,63.9,35.0,30.04,WNW,291,0.0,4.0,34,0.00,,,0.00,0,weatherlink.com 1.10,2013-03-23 01:53:00,
2013-03-22 19:08:00,62.1,37.0,30.04,North,351,2.0,3.0,39,0.00,,,0.00,0,weatherlink.com 1.10,2013-03-23 02:08:00,
2013-03-22 19:23:00,60.0,35.0,30.04,North,350,0.0,3.0,40,0.00,,,0.00,0,weatherlink.com 1.10,2013-03-23 02:23:00,
2013-03-22 19:38:00,58.4,36.0,30.05,NE,42,0.0,3.0,44,0.00,,,0.00,0,weatherlink.com 1.10,2013-03-23 02:38:00,
2013-03-22 19:53:00,57.4,38.0,30.05,NE,55,0.0,3.0,48,0.00,,,0.00,0,weatherlink.com 1.10,2013-03-23 02:53:00,
2013-03-22 20:08:00,56.4,38.0,30.05,NE,42,0.0,2.0,51,0.00,,,0.00,0,weatherlink.com 1.10,2013-03-23 03:08:00,
2013-03-22 20:23:00,55.2,39.0,30.06,NNE,25,0.0,1.0,55,0.00,,,0.00,0,weatherlink.com 1.10,2013-03-23 03:23:00,
2013-03-22 20:38:00,54.0,39.0,30.06,NE,40,0.0,1.0,58,0.00,,,0.00,0,weatherlink.com 1.10,2013-03-23 03:38:00,
2013-03-22 20:53:00,53.6,39.0,30.07,NNE,15,0.0,1.0,59,0.00,,,0.00,0,weatherlink.com 1.10,2013-03-23 03:53:00,
2013-03-22 21:08:00,53.7,39.0,30.07,NNE,24,1.0,2.0,59,0.00,,,0.00,0,weatherlink.com 1.10,2013-03-23 04:08:00,
2013-03-22 21:23:00,53.1,39.0,30.07,NNE,31,0.0,2.0,59,0.00,,,0.00,0,weatherlink.com 1.10,2013-03-23 04:23:00,
2013-03-22 21:38:00,53.5,39.0,30.07,NNE,32,1.0,3.0,59,0.00,,,0.00,0,weatherlink.com 1.10,2013-03-23 04:38:00,
2013-03-22 21:53:00,52.9,40.0,30.07,NNW,337,2.0,3.0,61,0.00,,,0.00,0,weatherlink.com 1.10,2013-03-23 04:53:00,
2013-03-22 22:08:00,52.5,40.0,30.07,NE,35,1.0,3.0,62,0.00,,,0.00,0,weatherlink.com 1.10,2013-03-23 05:08:00,
2013-03-22 22:23:00,52.2,40.0,30.07,NE,42,1.0,2.0,64,0.00,,,0.00,0,weatherlink.com 1.10,2013-03-23 05:23:00,
2013-03-22 22:39:00,52.0,40.0,30.08,NNE,28,1.0,2.0,64,0.00,,,0.00,0,weatherlink.com 1.10,2013-03-23 05:39:00,
2013-03-22 22:54:00,52.1,40.0,30.08,NNE,23,0.0,2.0,64,0.00,,,0.00,0,weatherlink.com 1.10,2013-03-23 05:54:00,
2013-03-22 23:09:00,52.2,40.0,30.08,NE,43,1.0,3.0,64,0.00,,,0.00,0,weatherlink.com 1.10,2013-03-23 06:09:00,
2013-03-22 23:24:00,51.9,40.0,30.09,NNW,328,2.0,2.0,64,0.00,,,0.00,0,weatherlink.com 1.10,2013-03-23 06:24:00,
2013-03-22 23:39:00,51.9,40.0,30.09,North,350,1.0,4.0,63,0.00,,,0.00,0,weatherlink.com 1.10,2013-03-23 06:39:00,
2013-03-22 23:54:00,51.2,40.0,30.09,NNE,12,3.0,3.0,65,0.00,,,0.00,0,weatherlink.com 1.10,2013-03-23 06:54:00,